KFLO

Florence Regional Airport

Florence, South Carolina, USA
KFLO 181720Z 1818/1918 35008KT P6SM SCT025 BKN250 FM182000 02007KT P6SM VCTS BKN030CB BKN120 FM182300 03005KT P6SM SCT030 FM190800 06006KT 5SM BR SKC FM191300 07006KT P6SM SCT250
Issued Valid From Valid To
Jul-18 @ 17:20 UTC
(5 hours ago)
Jul-18 @ 18:00 UTC
(4 hours ago)
Jul-19 @ 18:00 UTC
(in 20 hours)
Expired Click to View Jul-18 @ 18:00 to Jul-18 @ 20:00
KFLO 181720Z 1818/1918 35008KT P6SM SCT025 BKN250
Wind Visibility Clouds
350° at 8 knots Greater than 6 miles
  • Scattered at 2,500' AGL
  • Broken at 25,000' AGL
From Jul-18 @ 20:00 to Jul-18 @ 23:00
FM182000 02007KT P6SM VCTS BKN030CB BKN120
Wind Visibility Clouds Conditions
20° at 7 knots Greater than 6 miles
  • Broken at 3,000' AGL
  • Broken at 12,000' AGL
  • Area Thunderstorm
From Jul-18 @ 23:00 to Jul-19 @ 08:00
FM182300 03005KT P6SM SCT030
Wind Visibility Clouds
30° at 5 knots Greater than 6 miles
  • Scattered at 3,000' AGL
From Jul-19 @ 08:00 to Jul-19 @ 13:00
FM190800 06006KT 5SM BR SKC
Wind Visibility Clouds Conditions
60° at 6 knots 5 miles
  • Clear skies
  • Mist
From Jul-19 @ 13:00 to Jul-19 @ 18:00
FM191300 07006KT P6SM SCT250
Wind Visibility Clouds
70° at 6 knots Greater than 6 miles
  • Scattered at 25,000' AGL
KFLO 181720Z 1818/1918 35008KT P6SM SCT025 BKN250 FM182000 02007KT P6SM VCTS BKN030CB BKN120 FM182300 03005KT P6SM SCT030 FM190800 06006KT 5SM BR SKC FM191300 07006KT P6SM SCT250
Issued Jul-18 @ 17:20 UTC
(5 hours ago)
Valid From Jul-18 @ 18:00 UTC
(4 hours ago)
Valid To Jul-19 @ 18:00 UTC
(in 20 hours)
Jul-18 @ 18:00 - Jul-18 @ 20:00
Wind Visibility
350° at 8 knots Greater than 6 miles
Clouds
  • Scattered at 2,500' AGL
  • Broken at 25,000' AGL
From Jul-18 @ 20:00 - Jul-18 @ 23:00
Wind Visibility
20° at 7 knots Greater than 6 miles
Clouds
  • Broken at 3,000' AGL
  • Broken at 12,000' AGL
Conditions
  • Area Thunderstorm
From Jul-18 @ 23:00 - Jul-19 @ 08:00
Wind Visibility
30° at 5 knots Greater than 6 miles
Clouds
  • Scattered at 3,000' AGL
From Jul-19 @ 08:00 - Jul-19 @ 13:00
Wind Visibility
60° at 6 knots 5 miles
Clouds
  • Clear skies
Conditions
  • Mist
From Jul-19 @ 13:00 - Jul-19 @ 18:00
Wind Visibility
70° at 6 knots Greater than 6 miles
Clouds
  • Scattered at 25,000' AGL